createdAt,value
2019-03-29T00:02:17.098Z,13.60
2019-03-29T00:05:08.131Z,13.90
2019-03-29T00:07:50.987Z,14.40
2019-03-29T00:10:41.880Z,14.23
2019-03-29T00:13:25.174Z,14.80
2019-03-29T00:16:08.423Z,13.97
2019-03-29T00:18:59.260Z,14.67
2019-03-29T00:21:42.785Z,13.80
2019-03-29T00:24:33.669Z,13.70
2019-03-29T00:27:17.035Z,14.10
2019-03-29T00:30:08.217Z,14.50
2019-03-29T00:32:51.372Z,15.83
2019-03-29T00:35:42.268Z,14.93
2019-03-29T00:38:25.189Z,15.40
2019-03-29T00:41:16.065Z,14.83
2019-03-29T00:43:59.254Z,15.63
2019-03-29T00:46:50.174Z,14.97
2019-03-29T00:49:33.762Z,15.23
2019-03-29T00:52:24.652Z,15.63
2019-03-29T00:55:08.060Z,14.87
2019-03-29T00:57:58.938Z,15.97
2019-03-29T01:00:42.618Z,15.23
2019-03-29T01:03:33.536Z,15.10
2019-03-29T01:06:36.772Z,14.93
2019-03-29T01:09:27.685Z,14.97
2019-03-29T01:12:11.003Z,14.90
2019-03-29T01:15:01.881Z,14.27
2019-03-29T01:17:45.882Z,15.00
2019-03-29T01:20:36.956Z,14.40
2019-03-29T01:23:19.833Z,14.87
2019-03-29T01:26:10.735Z,14.67
2019-03-29T01:28:53.854Z,15.23
2019-03-29T01:31:44.757Z,15.33
2019-03-29T01:34:27.914Z,16.33
2019-03-29T01:37:19.820Z,16.20
2019-03-29T01:40:24.063Z,17.13
2019-03-29T01:43:14.978Z,18.13
2019-03-29T01:45:58.218Z,16.87
2019-03-29T01:48:49.389Z,17.07
2019-03-29T01:51:33.144Z,16.47
2019-03-29T01:54:24.045Z,16.77
2019-03-29T01:57:07.701Z,16.77
2019-03-29T01:59:58.600Z,17.40
2019-03-29T02:02:41.990Z,17.23
2019-03-29T02:05:33.002Z,16.27
2019-03-29T02:08:16.159Z,16.40
2019-03-29T02:11:07.069Z,15.53
2019-03-29T02:13:50.076Z,17.00
2019-03-29T02:16:40.944Z,17.07
2019-03-29T02:19:23.813Z,17.47
2019-03-29T02:22:14.692Z,16.27
2019-03-29T02:24:58.073Z,17.50
2019-03-29T02:27:49.031Z,17.77
2019-03-29T02:30:32.847Z,17.07
2019-03-29T02:33:23.769Z,16.90
2019-03-29T02:36:07.090Z,17.80
2019-03-29T02:38:59.221Z,18.20
2019-03-29T02:42:02.663Z,17.43
2019-03-29T02:44:53.662Z,17.57
2019-03-29T02:47:37.179Z,17.77
2019-03-29T02:50:28.056Z,17.13
2019-03-29T02:53:11.447Z,17.17
2019-03-29T02:56:02.385Z,18.30
2019-03-29T02:58:45.943Z,17.93
2019-03-29T03:01:36.860Z,18.13
2019-03-29T03:04:19.678Z,18.30
2019-03-29T03:07:10.597Z,18.00
2019-03-29T03:09:53.936Z,16.83
2019-03-29T03:12:37.733Z,17.60
2019-03-29T03:15:20.647Z,18.13
2019-03-29T03:18:11.691Z,16.77
2019-03-29T03:21:02.618Z,17.50
2019-03-29T03:23:46.262Z,17.53
2019-03-29T03:26:37.146Z,17.93
2019-03-29T03:29:20.544Z,17.80
2019-03-29T03:32:11.470Z,17.60
2019-03-29T03:34:55.183Z,17.87
2019-03-29T03:37:46.131Z,17.37
2019-03-29T03:40:29.846Z,17.47
2019-03-29T03:43:20.800Z,16.47
2019-03-29T03:46:03.653Z,16.87
2019-03-29T03:48:54.673Z,17.50
2019-03-29T03:51:38.214Z,17.50
2019-03-29T03:54:29.121Z,16.73
2019-03-29T03:57:12.057Z,17.47
2019-03-29T04:00:03.202Z,16.70
2019-03-29T04:02:46.291Z,17.17
2019-03-29T04:05:37.208Z,16.40
2019-03-29T04:08:21.092Z,15.90
2019-03-29T04:11:12.046Z,15.77
2019-03-29T04:13:55.738Z,15.37
2019-03-29T04:16:46.624Z,18.10
2019-03-29T04:19:30.179Z,17.33
2019-03-29T04:22:21.114Z,17.20
2019-03-29T04:25:04.038Z,17.37
2019-03-29T04:27:54.938Z,16.87
2019-03-29T04:30:38.403Z,17.57
2019-03-29T04:33:29.278Z,18.17
2019-03-29T04:36:12.173Z,16.40
2019-03-29T04:42:13.401Z,17.57
2019-03-29T04:45:04.417Z,17.43
2019-03-29T04:47:47.282Z,17.50
2019-03-29T04:50:38.183Z,17.43
2019-03-29T04:53:20.982Z,18.07
2019-03-29T04:56:11.881Z,18.23
2019-03-29T04:58:55.473Z,17.43
2019-03-29T05:01:46.392Z,19.40
2019-03-29T05:04:29.223Z,18.63
2019-03-29T05:07:20.158Z,18.50
2019-03-29T05:10:03.464Z,17.13
2019-03-29T05:12:54.370Z,17.63
2019-03-29T05:15:37.194Z,17.23
2019-03-29T05:18:28.109Z,17.57
2019-03-29T05:21:11.258Z,17.30
2019-03-29T05:24:02.184Z,18.00
2019-03-29T05:26:45.284Z,18.07
2019-03-29T05:29:36.174Z,18.97
2019-03-29T05:32:19.812Z,18.47
2019-03-29T05:35:10.842Z,17.17
2019-03-29T05:37:54.129Z,18.37
2019-03-29T05:40:45.072Z,17.03
2019-03-29T05:43:28.866Z,17.23
2019-03-29T05:46:19.749Z,16.90
2019-03-29T05:49:03.441Z,16.33
2019-03-29T05:51:54.341Z,16.43
2019-03-29T05:54:37.618Z,17.77
2019-03-29T05:57:28.604Z,17.03
2019-03-29T06:00:32.115Z,16.67
2019-03-29T06:03:23.033Z,16.67
2019-03-29T06:06:06.204Z,16.67
2019-03-29T06:08:57.101Z,18.17
2019-03-29T06:11:40.379Z,16.80
2019-03-29T06:14:31.294Z,16.90
2019-03-29T06:17:22.214Z,16.97
2019-03-29T06:20:06.568Z,17.73
2019-03-29T06:22:57.468Z,16.70
2019-03-29T06:25:40.656Z,16.50
2019-03-29T06:28:31.539Z,15.93
2019-03-29T06:31:15.087Z,16.30
2019-03-29T06:34:06.025Z,16.57
2019-03-29T06:36:50.203Z,16.27
2019-03-29T06:43:29.316Z,17.47
2019-03-29T06:46:20.242Z,16.77
2019-03-29T06:49:11.177Z,16.33
2019-03-29T06:51:54.755Z,15.93
2019-03-29T06:54:45.695Z,16.10
2019-03-29T06:57:28.656Z,15.00
2019-03-29T07:00:20.852Z,14.97
2019-03-29T07:03:04.021Z,14.03
2019-03-29T07:05:54.924Z,14.33
2019-03-29T07:08:37.786Z,13.90
2019-03-29T07:11:28.777Z,13.33
2019-03-29T07:14:11.628Z,12.63
2019-03-29T07:17:02.556Z,13.13
2019-03-29T07:19:53.490Z,12.57
2019-03-29T07:22:44.431Z,12.43
2019-03-29T07:25:27.791Z,11.20
2019-03-29T07:28:18.699Z,11.93
2019-03-29T07:31:01.883Z,12.13
2019-03-29T07:33:52.796Z,11.20
2019-03-29T07:36:36.258Z,11.03
2019-03-29T07:39:27.159Z,10.53
2019-03-29T07:42:10.764Z,10.10
2019-03-29T07:45:01.690Z,9.90
2019-03-29T07:47:45.546Z,9.73
2019-03-29T07:50:36.443Z,10.00
2019-03-29T07:53:19.625Z,9.93
2019-03-29T07:56:10.568Z,9.63
2019-03-29T07:58:53.514Z,8.50
2019-03-29T08:01:44.477Z,8.67
2019-03-29T08:04:27.318Z,9.13
2019-03-29T08:07:27.210Z,8.67
2019-03-29T08:10:27.594Z,7.10
2019-03-29T08:13:16.192Z,6.83
2019-03-29T08:16:20.588Z,7.63
2019-03-29T08:19:11.506Z,7.60
2019-03-29T08:21:57.721Z,7.07
2019-03-29T08:24:47.190Z,6.37
2019-03-29T08:27:50.522Z,6.40
2019-03-29T08:30:41.444Z,6.10
2019-03-29T08:33:24.744Z,6.03
2019-03-29T08:36:15.653Z,5.80
2019-03-29T08:38:59.140Z,5.90
2019-03-29T08:41:59.936Z,5.30
2019-03-29T08:44:54.676Z,5.40
2019-03-29T08:47:45.623Z,4.50
2019-03-29T08:50:29.065Z,4.23
2019-03-29T08:53:19.978Z,4.00
2019-03-29T08:56:03.464Z,4.73
2019-03-29T09:01:56.850Z,4.10
2019-03-29T09:04:47.864Z,4.00
2019-03-29T09:07:50.959Z,4.10
2019-03-29T09:10:41.972Z,3.90
2019-03-29T09:13:25.326Z,4.13
2019-03-29T09:16:08.908Z,3.80
2019-03-29T09:18:59.810Z,3.73
2019-03-29T09:21:42.843Z,4.33
2019-03-29T09:24:33.743Z,3.60
2019-03-29T09:27:16.867Z,3.40
2019-03-29T09:33:10.548Z,3.43
2019-03-29T09:36:04.826Z,4.20
2019-03-29T09:39:06.931Z,4.00
2019-03-29T09:41:57.870Z,3.87
2019-03-29T09:44:41.111Z,4.10
2019-03-29T09:47:38.572Z,3.83
2019-03-29T09:50:36.447Z,4.03
2019-03-29T09:53:27.393Z,3.80
2019-03-29T09:56:10.900Z,4.13
2019-03-29T09:59:01.834Z,3.80
2019-03-29T10:01:54.189Z,4.43
2019-03-29T10:04:58.194Z,4.40
2019-03-29T10:07:49.114Z,4.37
2019-03-29T10:10:34.484Z,3.23
2019-03-29T10:13:17.798Z,3.33
2019-03-29T10:16:08.739Z,4.40
2019-03-29T10:18:51.901Z,3.70
2019-03-29T10:21:42.855Z,4.00
2019-03-29T10:24:26.400Z,3.70
2019-03-29T10:27:19.022Z,4.43
2019-03-29T10:30:41.456Z,3.57
2019-03-29T10:36:41.180Z,4.13
2019-03-29T10:39:35.349Z,3.77
2019-03-29T10:42:39.875Z,3.63
2019-03-29T10:45:29.535Z,3.40
2019-03-29T10:48:12.441Z,3.87
2019-03-29T10:51:03.340Z,3.90
2019-03-29T10:53:47.038Z,3.97
2019-03-29T10:59:46.655Z,4.00
2019-03-29T11:02:37.604Z,3.93
2019-03-29T11:05:21.192Z,3.90
2019-03-29T11:08:12.434Z,4.03
2019-03-29T11:11:17.134Z,3.50
2019-03-29T11:14:08.060Z,3.70
2019-03-29T11:16:51.018Z,4.40
2019-03-29T11:19:42.019Z,4.00
2019-03-29T11:22:25.549Z,4.17
2019-03-29T11:25:16.585Z,3.70
2019-03-29T11:27:59.876Z,3.77
2019-03-29T11:30:50.767Z,3.80
2019-03-29T11:33:34.313Z,3.30
2019-03-29T11:36:25.241Z,3.07
2019-03-29T11:39:08.762Z,3.00
2019-03-29T11:42:03.129Z,3.30
2019-03-29T11:45:05.282Z,3.20
2019-03-29T11:48:07.293Z,2.77
2019-03-29T11:51:01.297Z,3.30
2019-03-29T11:53:52.197Z,3.50
2019-03-29T11:56:35.090Z,3.20
2019-03-29T11:59:26.044Z,3.00
2019-03-29T12:02:09.058Z,2.70
2019-03-29T12:05:00.004Z,3.17
2019-03-29T12:07:43.506Z,3.50
2019-03-29T12:10:34.500Z,3.23
2019-03-29T12:13:41.213Z,7.37
2019-03-29T12:16:30.114Z,7.57
2019-03-29T12:19:02.244Z,3.40
2019-03-29T12:21:54.335Z,2.83
2019-03-29T12:24:45.269Z,3.20
2019-03-29T12:27:36.256Z,3.63
2019-03-29T12:30:31.184Z,3.20
2019-03-29T12:33:12.034Z,2.70
2019-03-29T12:35:55.042Z,3.20
2019-03-29T12:38:45.954Z,3.80
2019-03-29T12:41:36.942Z,3.80
2019-03-29T12:44:20.411Z,3.50
2019-03-29T12:47:11.377Z,3.20
2019-03-29T12:49:54.555Z,3.73
2019-03-29T12:52:45.494Z,3.23
2019-03-29T12:55:29.102Z,3.80
2019-03-29T12:58:19.990Z,3.53
2019-03-29T13:01:03.013Z,3.33
2019-03-29T13:03:53.947Z,3.33
2019-03-29T13:06:57.129Z,3.83
2019-03-29T13:09:48.109Z,2.87
2019-03-29T13:12:31.265Z,3.57
2019-03-29T13:15:14.574Z,3.93
2019-03-29T13:18:05.513Z,4.10
2019-03-29T13:20:48.793Z,3.20
2019-03-29T13:23:39.742Z,3.80
2019-03-29T13:26:22.566Z,3.40
2019-03-29T13:29:13.495Z,3.20
2019-03-29T13:31:56.784Z,3.40
2019-03-29T13:34:51.199Z,3.73
2019-03-29T13:37:52.604Z,3.30
2019-03-29T13:40:43.558Z,3.00
2019-03-29T13:43:27.300Z,2.97
2019-03-29T13:46:18.348Z,2.87
2019-03-29T13:49:01.967Z,5.40
2019-03-29T13:51:52.921Z,3.40
2019-03-29T13:54:36.615Z,3.47
2019-03-29T13:57:27.551Z,3.10
2019-03-29T14:00:11.566Z,3.10
2019-03-29T14:03:02.492Z,3.20
2019-03-29T14:05:45.470Z,2.90
2019-03-29T14:08:38.728Z,3.00
2019-03-29T14:11:21.822Z,3.10
2019-03-29T14:14:12.759Z,2.77
2019-03-29T14:16:55.581Z,2.50
2019-03-29T14:19:46.533Z,3.20
2019-03-29T14:22:29.495Z,2.70
2019-03-29T14:25:21.926Z,3.00
2019-03-29T14:28:05.780Z,3.10
2019-03-29T14:30:56.664Z,3.03
2019-03-29T14:33:40.391Z,2.80
2019-03-29T14:36:31.276Z,2.73
2019-03-29T14:39:14.625Z,3.17
2019-03-29T14:42:05.525Z,3.80
2019-03-29T14:44:52.846Z,2.90
2019-03-29T14:47:43.502Z,3.20
2019-03-29T14:50:46.577Z,2.80
2019-03-29T14:53:37.524Z,3.20
2019-03-29T14:56:21.161Z,2.80
2019-03-29T14:59:12.083Z,3.20
2019-03-29T15:01:54.939Z,3.03
2019-03-29T15:04:45.858Z,2.53
2019-03-29T15:07:30.089Z,2.77
2019-03-29T15:10:39.798Z,2.70
2019-03-29T15:13:23.453Z,3.00
2019-03-29T15:16:14.378Z,2.63
2019-03-29T15:18:57.215Z,2.70
2019-03-29T15:21:48.109Z,2.83
2019-03-29T15:24:31.741Z,2.73
2019-03-29T15:27:22.645Z,2.60
2019-03-29T15:30:06.334Z,2.30
2019-03-29T15:32:57.241Z,3.33
2019-03-29T15:35:40.437Z,3.27
2019-03-29T15:38:31.368Z,2.90
2019-03-29T15:41:14.673Z,3.00
2019-03-29T15:44:05.761Z,3.27
2019-03-29T15:46:49.235Z,2.20
2019-03-29T15:49:40.172Z,3.13
2019-03-29T15:52:23.787Z,2.90
2019-03-29T15:55:14.726Z,2.60
2019-03-29T15:57:57.999Z,2.70
2019-03-29T16:00:48.930Z,3.00
2019-03-29T16:03:32.415Z,3.00
2019-03-29T16:06:23.337Z,2.80
2019-03-29T16:09:06.826Z,2.90
2019-03-29T16:11:57.719Z,2.97
2019-03-29T16:14:41.149Z,3.33
2019-03-29T16:17:32.071Z,3.17
2019-03-29T16:20:15.026Z,3.23
2019-03-29T16:23:05.948Z,3.20
2019-03-29T16:25:48.796Z,3.00
2019-03-29T16:28:39.707Z,3.03
2019-03-29T16:31:42.895Z,3.00
2019-03-29T16:34:33.827Z,2.70
2019-03-29T16:37:16.805Z,2.40
2019-03-29T16:43:37.182Z,2.10
2019-03-29T16:46:28.122Z,2.33
2019-03-29T16:49:11.770Z,2.30
2019-03-29T16:52:02.705Z,2.13
2019-03-29T16:54:46.471Z,2.60
2019-03-29T16:57:37.362Z,2.40
2019-03-29T17:00:20.978Z,3.07
2019-03-29T17:03:11.876Z,2.47
2019-03-29T17:06:02.834Z,2.50
2019-03-29T17:08:45.990Z,2.80
2019-03-29T17:11:36.921Z,2.53
2019-03-29T17:14:19.956Z,3.00
2019-03-29T17:17:03.041Z,3.40
2019-03-29T17:19:53.920Z,3.07
2019-03-29T17:22:37.220Z,3.30
2019-03-29T17:25:28.133Z,5.07
2019-03-29T17:28:11.671Z,5.53
2019-03-29T17:34:28.432Z,5.40
2019-03-29T17:37:19.371Z,6.83
2019-03-29T17:40:03.072Z,8.37
2019-03-29T17:42:46.238Z,8.17
2019-03-29T17:45:37.162Z,6.30
2019-03-29T17:48:20.106Z,6.13
2019-03-29T17:51:03.724Z,6.07
2019-03-29T17:53:54.635Z,5.93
2019-03-29T17:56:45.597Z,5.93
2019-03-29T17:59:36.526Z,5.83
2019-03-29T18:02:20.378Z,6.60
2019-03-29T18:05:11.521Z,6.53
2019-03-29T18:07:55.198Z,6.90
2019-03-29T18:10:46.139Z,17.87
2019-03-29T18:13:29.306Z,7.53
2019-03-29T18:16:12.609Z,8.07
2019-03-29T18:19:03.559Z,8.10
2019-03-29T18:21:46.612Z,8.57
2019-03-29T18:24:37.585Z,8.87
2019-03-29T18:27:20.850Z,7.73
2019-03-29T18:33:40.852Z,8.47
2019-03-29T18:36:31.896Z,8.17
2019-03-29T18:39:15.250Z,8.83
2019-03-29T18:42:06.218Z,8.93
2019-03-29T18:44:49.192Z,9.57
2019-03-29T18:47:40.175Z,9.10
2019-03-29T18:50:22.997Z,9.07
2019-03-29T18:53:13.932Z,9.23
2019-03-29T18:55:56.836Z,9.67
2019-03-29T18:58:47.708Z,8.63
2019-03-29T19:01:50.990Z,8.70
2019-03-29T19:04:41.926Z,9.30
2019-03-29T19:07:28.864Z,9.63
2019-03-29T19:10:20.138Z,9.37
2019-03-29T19:13:03.119Z,9.60
2019-03-29T19:15:46.958Z,9.90
2019-03-29T19:18:37.927Z,9.70
2019-03-29T19:21:21.711Z,9.00
2019-03-29T19:24:12.699Z,9.57
2019-03-29T19:26:55.516Z,10.03
2019-03-29T19:29:46.489Z,9.93
2019-03-29T19:32:30.049Z,9.20
2019-03-29T19:35:21.002Z,9.97
2019-03-29T19:38:03.917Z,12.07
2019-03-29T19:40:54.856Z,10.73
2019-03-29T19:43:38.619Z,10.70
2019-03-29T19:46:29.537Z,10.70
2019-03-29T19:49:12.554Z,10.30
2019-03-29T19:52:03.500Z,11.33
2019-03-29T19:54:47.111Z,10.73
2019-03-29T19:57:38.032Z,10.47
2019-03-29T20:00:22.625Z,10.43
2019-03-29T20:03:13.543Z,10.57
2019-03-29T20:05:56.513Z,11.13
2019-03-29T20:08:47.434Z,11.43
2019-03-29T20:11:30.322Z,11.47
2019-03-29T20:14:21.276Z,11.07
2019-03-29T20:17:12.256Z,11.67
2019-03-29T20:19:55.834Z,11.00
2019-03-29T20:22:47.138Z,11.40
2019-03-29T20:25:51.464Z,11.37
2019-03-29T20:28:42.395Z,11.33
2019-03-29T20:31:25.374Z,11.27
2019-03-29T20:34:16.341Z,12.10
2019-03-29T20:36:59.813Z,11.83
2019-03-29T20:39:50.771Z,12.33
2019-03-29T20:42:41.718Z,12.03
2019-03-29T20:45:24.668Z,12.43
2019-03-29T20:48:15.561Z,11.87
2019-03-29T20:50:59.179Z,11.77
2019-03-29T20:53:50.128Z,11.77
2019-03-29T20:56:33.119Z,12.20
2019-03-29T20:59:24.032Z,12.90
2019-03-29T21:02:07.752Z,12.03
2019-03-29T21:04:58.665Z,12.30
2019-03-29T21:07:42.369Z,12.13
2019-03-29T21:10:33.273Z,12.07
2019-03-29T21:13:16.771Z,12.33
2019-03-29T21:15:59.639Z,11.00
2019-03-29T21:18:50.579Z,11.97
2019-03-29T21:21:34.229Z,10.73
2019-03-29T21:24:25.187Z,10.33
2019-03-29T21:27:08.413Z,10.13
2019-03-29T21:29:52.335Z,9.57
2019-03-29T21:32:43.259Z,9.73
2019-03-29T21:35:26.919Z,8.50
2019-03-29T21:38:17.871Z,8.00
2019-03-29T21:41:01.232Z,8.33
2019-03-29T21:43:52.180Z,7.97
2019-03-29T21:46:35.921Z,8.30
2019-03-29T21:49:26.858Z,7.63
2019-03-29T21:52:10.440Z,7.40
2019-03-29T21:55:01.376Z,7.50
2019-03-29T21:57:44.468Z,7.57
2019-03-29T22:00:35.387Z,7.27
2019-03-29T22:03:18.719Z,7.17
2019-03-29T22:06:09.682Z,8.10
2019-03-29T22:08:52.952Z,6.77
2019-03-29T22:11:43.872Z,6.87
2019-03-29T22:14:34.784Z,5.50
2019-03-29T22:17:25.730Z,4.73
2019-03-29T22:20:09.747Z,5.07
2019-03-29T22:23:00.664Z,4.40
2019-03-29T22:25:43.899Z,5.00
2019-03-29T22:28:34.772Z,4.90
2019-03-29T22:31:18.357Z,4.30
2019-03-29T22:34:09.266Z,4.40
2019-03-29T22:36:52.846Z,4.43
2019-03-29T22:39:43.786Z,3.80
2019-03-29T22:42:26.920Z,4.73
2019-03-29T22:45:17.788Z,4.50
2019-03-29T22:48:00.747Z,4.33
2019-03-29T22:50:51.686Z,4.83
2019-03-29T22:53:34.979Z,4.40
2019-03-29T22:56:25.910Z,4.30
2019-03-29T22:59:09.634Z,3.97
2019-03-29T23:02:00.641Z,4.50
2019-03-29T23:04:43.832Z,4.10
2019-03-29T23:07:34.731Z,4.73
2019-03-29T23:10:18.378Z,4.00
2019-03-29T23:13:09.308Z,3.77
2019-03-29T23:15:52.827Z,4.20
2019-03-29T23:18:43.767Z,4.60
2019-03-29T23:21:26.584Z,4.80
2019-03-29T23:24:17.526Z,5.00
2019-03-29T23:27:00.531Z,5.17
2019-03-29T23:29:51.477Z,4.73
2019-03-29T23:32:54.625Z,4.63
2019-03-29T23:35:45.592Z,3.90
2019-03-29T23:38:29.278Z,4.77
2019-03-29T23:41:20.237Z,4.83
2019-03-29T23:44:11.211Z,4.90
2019-03-29T23:46:54.319Z,4.60
2019-03-29T23:49:45.259Z,4.40
2019-03-29T23:52:28.079Z,4.23
2019-03-29T23:55:11.685Z,4.60
2019-03-29T23:58:02.578Z,4.63
